Time;durP1;ratioP1;P1;durP2;ratioP2;P2;SDS_P1;SDS_P2;PMS_P1;PMS_P2;Temp;Humidity;BMP_temperature;BMP_pressure;BME280_temperature;BME280_humidity;BME280_pressure;Samples;Min_cycle;Max_cycle;Signal;HPM_P1;HPM_P2
2021/08/02 00:01:40;;;;;;;6.68;5.85;;;17.60;99.90;;;;;;5022047;28;20073;-89
2021/08/02 00:04:11;;;;;;;6.35;5.68;;;17.70;99.90;;;;;;5018848;28;20060;-89
2021/08/02 00:06:55;;;;;;;6.28;4.95;;;17.60;99.70;;;;;;5018423;28;20038;-89
2021/08/02 00:09:30;;;;;;;5.18;4.63;;;17.70;99.60;;;;;;5026267;28;20041;-89
2021/08/02 00:12:00;;;;;;;6.00;5.25;;;17.70;99.40;;;;;;5008204;28;20060;-90
2021/08/02 00:14:26;;;;;;;7.68;4.60;;;17.70;99.30;;;;;;5029935;28;20026;-91
2021/08/02 00:16:53;;;;;;;7.20;5.63;;;17.70;99.20;;;;;;5019977;28;20038;-91
2021/08/02 00:19:20;;;;;;;5.47;4.57;;;17.70;99.20;;;;;;5010959;28;20111;-91
2021/08/02 00:21:46;;;;;;;5.72;5.10;;;17.70;99.10;;;;;;5027540;28;20109;-91
2021/08/02 00:24:12;;;;;;;5.97;5.35;;;17.80;99.10;;;;;;5024951;28;20305;-91
2021/08/02 00:26:39;;;;;;;7.32;4.80;;;17.80;99.20;;;;;;5039523;28;20048;-87
2021/08/02 00:29:08;;;;;;;6.10;4.65;;;17.80;99.10;;;;;;5039254;28;20127;-90
2021/08/02 00:31:36;;;;;;;5.57;4.70;;;17.80;99.00;;;;;;5033911;28;20050;-91
2021/08/02 00:34:02;;;;;;;5.82;5.07;;;17.80;99.10;;;;;;5041788;28;20030;-89
2021/08/02 00:36:42;;;;;;;5.55;4.55;;;17.80;98.50;;;;;;5026933;28;20041;-91
2021/08/02 00:39:33;;;;;;;5.55;4.57;;;17.70;98.40;;;;;;5038160;28;20046;-89
2021/08/02 00:42:32;;;;;;;7.07;5.20;;;17.60;98.50;;;;;;5011592;28;20033;-90
2021/08/02 00:45:22;;;;;;;7.32;5.55;;;17.60;98.50;;;;;;5026018;28;20034;-91
2021/08/02 00:48:01;;;;;;;7.40;4.78;;;17.50;98.40;;;;;;5007875;28;20068;-90
2021/08/02 00:50:31;;;;;;;7.28;5.47;;;17.50;98.50;;;;;;5026305;28;20034;-90
2021/08/02 00:53:05;;;;;;;7.68;5.28;;;17.40;98.50;;;;;;5029875;28;20311;-91
2021/08/02 00:55:34;;;;;;;5.75;5.05;;;17.40;98.60;;;;;;5021364;28;20117;-91
2021/08/02 00:58:03;;;;;;;6.22;5.07;;;17.40;98.80;;;;;;5038498;28;20052;-90
2021/08/02 01:00:29;;;;;;;9.77;5.55;;;17.30;98.90;;;;;;5040933;28;20069;-90
2021/08/02 01:02:56;;;;;;;4.72;4.05;;;17.30;99.00;;;;;;5021228;28;20095;-90
2021/08/02 01:05:23;;;;;;;4.15;3.63;;;17.30;99.00;;;;;;5037583;28;20045;-90
2021/08/02 01:08:05;;;;;;;4.95;3.90;;;17.30;98.80;;;;;;5038163;28;20046;-90
2021/08/02 01:10:32;;;;;;;5.93;3.58;;;17.30;98.70;;;;;;5038460;28;20471;-90
2021/08/02 01:13:02;;;;;;;4.72;3.90;;;17.30;98.80;;;;;;5041706;28;20045;-90
2021/08/02 01:15:29;;;;;;;4.43;3.22;;;17.20;98.90;;;;;;5048641;28;20046;-90
2021/08/02 01:17:56;;;;;;;4.20;3.55;;;17.20;98.90;;;;;;5025418;28;20112;-89
2021/08/02 01:20:23;;;;;;;4.63;3.42;;;17.20;98.90;;;;;;5030334;28;20042;-88
2021/08/02 01:22:49;;;;;;;5.45;3.45;;;17.20;98.90;;;;;;5037286;28;20463;-89
2021/08/02 01:25:33;;;;;;;4.85;3.58;;;17.20;99.00;;;;;;5035472;28;20052;-89
2021/08/02 01:28:24;;;;;;;5.50;3.92;;;17.20;99.20;;;;;;5036167;28;20049;-89
2021/08/02 01:30:52;;;;;;;4.85;3.85;;;17.10;99.30;;;;;;4998588;28;20457;-89
2021/08/02 01:33:28;;;;;;;4.68;3.97;;;17.10;99.40;;;;;;5032581;28;20045;-89
2021/08/02 01:36:03;;;;;;;5.78;4.10;;;17.10;99.50;;;;;;5037156;28;20069;-91
2021/08/02 01:38:30;;;;;;;4.10;3.28;;;17.20;99.50;;;;;;5037538;28;20129;-90
2021/08/02 01:40:56;;;;;;;4.05;3.20;;;17.10;99.40;;;;;;5038164;28;20120;-91
2021/08/02 01:43:22;;;;;;;7.57;3.55;;;17.10;99.40;;;;;;5035065;28;20037;-90
2021/08/02 01:45:56;;;;;;;3.60;3.15;;;17.20;99.40;;;;;;5032206;28;20099;-89
2021/08/02 01:48:50;;;;;;;4.25;3.33;;;17.10;99.40;;;;;;5040624;28;20037;-89
2021/08/02 01:51:29;;;;;;;5.20;3.58;;;17.20;99.40;;;;;;5020565;28;20037;-88
2021/08/02 01:54:19;;;;;;;5.80;3.38;;;17.10;99.40;;;;;;5037111;28;20048;-89
2021/08/02 01:56:54;;;;;;;3.88;3.05;;;17.10;99.50;;;;;;5020510;28;20114;-89
2021/08/02 01:59:23;;;;;;;4.60;3.00;;;17.10;99.40;;;;;;5030986;28;20022;-91
2021/08/02 02:02:03;;;;;;;4.65;2.97;;;17.00;99.30;;;;;;5042663;28;20393;-92
2021/08/02 02:04:36;;;;;;;5.15;2.88;;;17.00;99.40;;;;;;5036561;28;20042;-90
2021/08/02 02:07:03;;;;;;;3.95;3.28;;;17.00;99.40;;;;;;5020153;28;20036;-91
2021/08/02 02:09:33;;;;;;;2.92;2.50;;;17.00;99.50;;;;;;5020361;28;20377;-91
2021/08/02 02:12:01;;;;;;;4.00;2.90;;;17.00;99.50;;;;;;5032011;28;20041;-90
2021/08/02 02:14:30;;;;;;;3.28;2.92;;;17.10;99.60;;;;;;5019928;28;20532;-90
2021/08/02 02:16:58;;;;;;;3.88;2.85;;;17.10;99.70;;;;;;5019490;28;20042;-90
2021/08/02 02:19:26;;;;;;;3.90;2.67;;;17.10;99.70;;;;;;5036644;28;20062;-89
2021/08/02 02:21:53;;;;;;;4.15;3.20;;;17.10;99.70;;;;;;5042636;28;20382;-89
2021/08/02 02:24:20;;;;;;;3.33;2.85;;;17.10;99.70;;;;;;5031398;28;20045;-90
2021/08/02 02:26:47;;;;;;;4.53;3.20;;;17.10;99.80;;;;;;5029758;28;20037;-90
2021/08/02 02:29:15;;;;;;;5.28;2.78;;;17.10;99.80;;;;;;5039276;28;20052;-91
2021/08/02 02:31:44;;;;;;;3.47;2.90;;;17.10;99.80;;;;;;5021157;28;20069;-90
2021/08/02 02:34:11;;;;;;;3.60;3.08;;;17.20;99.90;;;;;;5031712;28;20048;-90
2021/08/02 02:36:39;;;;;;;4.35;2.75;;;17.20;99.80;;;;;;5041914;28;20286;-91
2021/08/02 02:39:05;;;;;;;3.17;2.45;;;17.20;99.90;;;;;;5027119;28;20056;-90
2021/08/02 02:41:33;;;;;;;3.78;2.55;;;17.20;99.80;;;;;;5019693;28;20134;-88
2021/08/02 02:44:00;;;;;;;4.43;2.65;;;17.20;99.70;;;;;;5019517;28;20172;-89
2021/08/02 02:46:26;;;;;;;8.60;3.10;;;17.20;99.70;;;;;;5018867;28;20038;-90
2021/08/02 02:48:57;;;;;;;3.25;2.92;;;17.20;99.60;;;;;;5025222;28;20124;-90
2021/08/02 02:51:26;;;;;;;3.40;2.72;;;17.20;99.60;;;;;;5046297;28;20041;-89
2021/08/02 02:53:53;;;;;;;4.40;2.78;;;17.20;99.50;;;;;;5019694;28;20041;-90
2021/08/02 02:56:19;;;;;;;3.10;2.53;;;17.20;99.20;;;;;;5032525;28;20117;-90
2021/08/02 02:58:45;;;;;;;2.67;2.22;;;17.30;99.20;;;;;;5018466;28;20037;-89
2021/08/02 03:01:15;;;;;;;3.58;2.70;;;17.20;99.20;;;;;;5021683;28;20510;-90
2021/08/02 03:03:45;;;;;;;3.00;2.63;;;17.20;99.20;;;;;;5018745;28;20080;-90
2021/08/02 03:06:14;;;;;;;3.47;2.45;;;17.20;99.20;;;;;;5019149;28;20045;-90
2021/08/02 03:08:42;;;;;;;4.15;2.25;;;17.20;99.20;;;;;;5045480;28;20072;-90
2021/08/02 03:11:10;;;;;;;5.60;3.47;;;17.20;99.30;;;;;;5035421;28;20030;-89
2021/08/02 03:13:36;;;;;;;3.03;2.42;;;17.10;99.30;;;;;;5017964;28;20140;-89
2021/08/02 03:16:02;;;;;;;3.08;2.78;;;17.00;99.20;;;;;;5019465;28;20073;-91
2021/08/02 03:18:27;;;;;;;4.43;2.90;;;17.00;99.40;;;;;;5029017;28;20029;-90
2021/08/02 03:20:53;;;;;;;3.05;2.63;;;17.00;99.60;;;;;;5040419;28;20031;-90
2021/08/02 03:23:37;;;;;;;4.47;3.38;;;17.00;99.60;;;;;;5028523;28;20124;-89
2021/08/02 03:26:10;;;;;;;5.97;3.33;;;17.00;99.60;;;;;;5036748;28;20092;-89
2021/08/02 03:28:47;;;;;;;3.53;3.03;;;17.00;99.70;;;;;;5038205;28;20372;-90
2021/08/02 03:31:21;;;;;;;3.67;3.03;;;17.00;99.80;;;;;;5026196;28;20041;-89
2021/08/02 03:33:48;;;;;;;3.78;3.00;;;17.00;99.80;;;;;;5035195;28;20050;-88
2021/08/02 03:36:15;;;;;;;4.22;3.47;;;17.00;99.80;;;;;;5035045;28;20045;-88
2021/08/02 03:38:45;;;;;;;3.65;3.25;;;17.00;99.90;;;;;;5020183;28;20068;-88
2021/08/02 03:41:12;;;;;;;6.63;3.40;;;17.00;99.90;;;;;;5029609;28;20087;-89
2021/08/02 03:43:40;;;;;;;5.85;3.35;;;17.00;99.90;;;;;;5038440;28;20314;-87
2021/08/02 03:46:07;;;;;;;3.90;3.30;;;17.00;99.80;;;;;;5020141;28;20034;-88
2021/08/02 03:48:35;;;;;;;5.47;4.07;;;17.00;99.90;;;;;;5035372;28;20030;-88
2021/08/02 03:51:01;;;;;;;4.10;3.70;;;17.00;99.90;;;;;;5016498;28;20279;-89
2021/08/02 03:53:26;;;;;;;5.45;3.92;;;17.00;99.90;;;;;;5018297;28;20044;-87
2021/08/02 03:55:52;;;;;;;7.88;4.13;;;17.10;99.90;;;;;;5027030;28;20624;-88
2021/08/02 03:58:18;;;;;;;6.18;4.55;;;17.00;99.60;;;;;;5018106;28;20042;-88
2021/08/02 04:00:43;;;;;;;7.20;5.55;;;16.90;99.80;;;;;;5019765;28;20103;-87
2021/08/02 04:03:09;;;;;;;15.50;6.53;;;17.00;99.90;;;;;;5016646;28;20135;-88
2021/08/02 04:05:35;;;;;;;7.03;5.68;;;17.00;99.90;;;;;;5017705;28;20166;-89
2021/08/02 04:08:02;;;;;;;6.80;5.45;;;17.00;99.90;;;;;;5017525;28;20125;-87
2021/08/02 04:10:30;;;;;;;8.02;5.93;;;16.90;99.90;;;;;;5022024;28;20104;-88
2021/08/02 04:12:56;;;;;;;11.30;6.25;;;17.00;99.90;;;;;;5024475;28;20052;-89
2021/08/02 04:15:22;;;;;;;7.88;6.25;;;17.00;99.90;;;;;;5040431;28;20294;-88
2021/08/02 04:17:47;;;;;;;12.18;6.47;;;16.90;99.90;;;;;;5021591;28;20107;-88
2021/08/02 04:20:18;;;;;;;10.65;7.55;;;16.90;99.90;;;;;;5025444;28;20034;-88
2021/08/02 04:22:46;;;;;;;8.45;7.22;;;16.90;99.90;;;;;;5027550;28;20033;-89
2021/08/02 04:25:12;;;;;;;9.38;6.43;;;16.90;99.90;;;;;;5038644;28;20049;-89
2021/08/02 04:27:37;;;;;;;9.43;6.88;;;16.90;99.90;;;;;;5039003;28;20401;-88
2021/08/02 04:30:04;;;;;;;13.23;7.38;;;16.90;99.90;;;;;;5022667;28;20045;-89
2021/08/02 04:32:31;;;;;;;7.78;6.35;;;16.90;99.90;;;;;;5020333;28;20052;-88
2021/08/02 04:34:57;;;;;;;11.77;7.15;;;16.90;99.90;;;;;;5034654;28;20095;-89
2021/08/02 04:37:22;;;;;;;9.65;7.82;;;16.90;99.90;;;;;;5028074;28;20038;-89
2021/08/02 04:39:48;;;;;;;9.57;7.40;;;16.90;99.90;;;;;;5021802;28;20034;-90
2021/08/02 04:42:14;;;;;;;10.25;7.93;;;17.00;99.90;;;;;;5028109;28;20044;-88
2021/08/02 04:44:39;;;;;;;8.88;7.35;;;17.00;99.90;;;;;;5038899;28;20045;-90
2021/08/02 04:47:05;;;;;;;11.68;7.03;;;16.90;99.90;;;;;;5024999;28;20076;-89
2021/08/02 04:49:31;;;;;;;9.25;7.38;;;16.90;99.90;;;;;;5020862;28;20485;-88
2021/08/02 04:51:56;;;;;;;9.55;7.00;;;16.90;99.90;;;;;;5034227;28;20149;-91
2021/08/02 04:54:23;;;;;;;9.77;7.30;;;16.90;99.90;;;;;;5021668;28;20080;-90
2021/08/02 04:56:48;;;;;;;13.30;7.68;;;17.00;99.90;;;;;;5024838;28;20049;-87
2021/08/02 04:59:14;;;;;;;9.48;7.18;;;16.90;99.90;;;;;;5027661;28;20349;-88
2021/08/02 05:01:40;;;;;;;11.88;7.53;;;16.90;99.90;;;;;;5037268;28;20096;-87
2021/08/02 05:04:05;;;;;;;9.88;6.88;;;17.00;99.90;;;;;;5019665;28;20092;-86
2021/08/02 05:06:31;;;;;;;7.78;6.75;;;17.00;99.90;;;;;;5019785;28;20563;-87
2021/08/02 05:08:56;;;;;;;11.02;6.38;;;17.00;99.90;;;;;;5020223;28;20037;-86
2021/08/02 05:11:22;;;;;;;9.50;6.68;;;17.00;99.90;;;;;;5020556;28;20042;-88
2021/08/02 05:13:47;;;;;;;8.13;6.22;;;17.00;99.90;;;;;;5020437;28;20333;-85
2021/08/02 05:16:13;;;;;;;9.02;6.20;;;16.90;99.90;;;;;;5019401;28;20048;-85
2021/08/02 05:18:38;;;;;;;8.48;6.63;;;16.90;99.90;;;;;;5020624;28;20063;-89
2021/08/02 05:21:04;;;;;;;13.48;6.75;;;16.90;99.90;;;;;;5019934;28;20057;-87
2021/08/02 05:23:29;;;;;;;8.63;5.97;;;16.90;99.90;;;;;;5020110;28;20389;-88
2021/08/02 05:25:55;;;;;;;7.88;6.53;;;16.90;99.90;;;;;;5019872;28;20046;-87
2021/08/02 05:28:20;;;;;;;8.30;6.03;;;16.90;99.90;;;;;;5044226;28;20092;-86
2021/08/02 05:30:47;;;;;;;8.13;6.30;;;17.00;99.90;;;;;;5043810;28;20041;-87
2021/08/02 05:33:13;;;;;;;7.00;5.28;;;17.00;99.90;;;;;;5035835;28;20330;-87
2021/08/02 05:35:39;;;;;;;8.68;5.30;;;16.90;99.90;;;;;;5037170;28;20061;-87
2021/08/02 05:38:05;;;;;;;11.00;6.45;;;16.90;99.90;;;;;;5023205;28;20041;-88
2021/08/02 05:40:30;;;;;;;7.57;5.70;;;17.00;99.90;;;;;;5025383;28;20127;-89
2021/08/02 05:42:56;;;;;;;8.65;6.25;;;17.00;99.90;;;;;;5037130;28;20103;-88
2021/08/02 05:45:22;;;;;;;6.50;5.43;;;17.00;99.90;;;;;;5035791;28;20042;-90
2021/08/02 05:47:55;;;;;;;5.57;4.32;;;16.90;99.90;;;;;;5037720;28;20045;-90
2021/08/02 05:50:22;;;;;;;5.32;3.70;;;16.90;99.90;;;;;;5037244;28;20041;-88
2021/08/02 05:52:47;;;;;;;5.50;3.90;;;16.90;99.90;;;;;;5036811;28;20037;-90
2021/08/02 05:55:13;;;;;;;6.60;4.28;;;16.80;99.90;;;;;;5037715;28;20034;-91
2021/08/02 05:57:39;;;;;;;3.72;3.15;;;16.80;99.90;;;;;;5045103;28;20037;-90
2021/08/02 06:00:06;;;;;;;4.00;2.65;;;16.80;99.90;;;;;;5041970;28;20044;-89
2021/08/02 06:02:32;;;;;;;2.80;2.28;;;16.80;99.90;;;;;;5036756;28;20053;-90
2021/08/02 06:04:58;;;;;;;3.65;2.95;;;16.80;99.90;;;;;;5037203;28;20467;-90
2021/08/02 06:07:23;;;;;;;2.95;2.58;;;16.80;99.90;;;;;;5039572;28;20045;-89
2021/08/02 06:09:51;;;;;;;6.80;3.70;;;16.90;99.90;;;;;;5052986;28;20033;-89
2021/08/02 06:12:16;;;;;;;3.58;2.60;;;16.90;99.90;;;;;;5038493;28;20053;-90
2021/08/02 06:14:42;;;;;;;4.85;3.58;;;17.00;99.90;;;;;;5036898;28;20030;-91
2021/08/02 06:17:07;;;;;;;4.40;2.92;;;17.00;99.90;;;;;;5036955;28;20030;-91
2021/08/02 06:19:33;;;;;;;4.38;2.88;;;17.10;99.90;;;;;;5037089;28;20045;-90
2021/08/02 06:21:59;;;;;;;3.80;3.00;;;17.20;99.90;;;;;;5036953;28;20038;-91
2021/08/02 06:24:24;;;;;;;3.30;2.67;;;17.20;99.90;;;;;;5036562;28;20045;-91
2021/08/02 06:26:50;;;;;;;4.22;2.72;;;17.20;99.60;;;;;;5037082;28;20038;-91
2021/08/02 06:29:15;;;;;;;3.85;3.00;;;17.20;99.60;;;;;;5036630;28;20041;-91
2021/08/02 06:31:41;;;;;;;4.32;2.75;;;17.30;99.70;;;;;;5036270;28;20041;-91
2021/08/02 06:34:08;;;;;;;7.18;2.63;;;17.30;99.40;;;;;;5036053;28;20489;-92
2021/08/02 06:36:33;;;;;;;3.17;2.38;;;17.30;99.60;;;;;;5036518;28;20064;-91
2021/08/02 06:38:59;;;;;;;5.28;2.70;;;17.40;99.30;;;;;;5036320;28;20065;-91
2021/08/02 06:41:24;;;;;;;3.70;2.63;;;17.40;98.90;;;;;;5036326;28;20044;-93
2021/08/02 06:43:50;;;;;;;7.03;2.88;;;17.40;98.90;;;;;;5036790;28;20038;-93
2021/08/02 06:46:16;;;;;;;3.85;3.10;;;17.30;99.10;;;;;;5040732;28;20113;-91
2021/08/02 06:48:41;;;;;;;4.75;3.33;;;17.30;99.70;;;;;;5045468;28;20048;-91
2021/08/02 06:51:10;;;;;;;3.97;3.22;;;17.40;99.40;;;;;;5039512;28;20049;-91
2021/08/02 06:53:35;;;;;;;4.68;2.58;;;17.40;99.20;;;;;;5036656;28;20038;-91
2021/08/02 06:56:04;;;;;;;3.63;2.75;;;17.50;99.10;;;;;;5036162;28;20034;-91
2021/08/02 06:58:30;;;;;;;3.70;2.78;;;17.50;99.70;;;;;;5038817;28;20034;-91
2021/08/02 07:00:55;;;;;;;3.50;3.20;;;17.60;99.30;;;;;;5037117;28;20038;-92
2021/08/02 07:03:27;;;;;;;3.38;2.70;;;17.70;99.60;;;;;;5035410;28;20046;-92
2021/08/02 07:05:52;;;;;;;5.38;2.67;;;17.90;99.50;;;;;;5036639;28;20038;-91
2021/08/02 07:08:19;;;;;;;4.32;2.58;;;17.90;98.50;;;;;;5042148;28;20046;-90
2021/08/02 07:10:45;;;;;;;7.75;2.55;;;18.10;98.00;;;;;;5037761;28;20069;-90
2021/08/02 07:13:10;;;;;;;9.98;2.58;;;18.20;97.90;;;;;;5036628;28;20394;-89
2021/08/02 07:15:36;;;;;;;3.08;2.50;;;18.20;97.90;;;;;;5020040;28;20064;-89
2021/08/02 07:18:02;;;;;;;3.72;1.90;;;18.20;97.10;;;;;;5037497;28;20096;-90
2021/08/02 07:20:30;;;;;;;6.30;2.33;;;18.30;96.90;;;;;;5049872;28;20042;-90
2021/08/02 07:22:56;;;;;;;5.18;2.22;;;18.30;97.10;;;;;;5046892;28;20037;-90
2021/08/02 07:25:21;;;;;;;4.00;2.30;;;18.40;97.40;;;;;;5036800;28;20034;-90
2021/08/02 07:27:47;;;;;;;2.45;2.05;;;18.50;97.70;;;;;;5035823;28;20049;-90
2021/08/02 07:30:13;;;;;;;2.97;1.83;;;18.60;97.40;;;;;;5035431;28;20038;-89
2021/08/02 07:32:38;;;;;;;4.05;2.35;;;18.60;95.50;;;;;;5043393;28;20072;-89
2021/08/02 07:35:04;;;;;;;4.07;2.25;;;18.70;96.30;;;;;;5037238;28;20052;-88
2021/08/02 07:37:30;;;;;;;5.40;2.00;;;18.80;96.10;;;;;;5035105;28;20033;-90
2021/08/02 07:39:55;;;;;;;2.85;1.60;;;18.80;95.90;;;;;;5034801;28;20038;-90
2021/08/02 07:42:21;;;;;;;4.00;2.00;;;18.90;95.70;;;;;;5035078;28;20045;-88
2021/08/02 07:44:46;;;;;;;5.38;1.63;;;18.90;95.50;;;;;;5033778;28;20037;-88
2021/08/02 07:47:12;;;;;;;2.20;1.90;;;18.90;95.60;;;;;;5023323;28;20037;-88
2021/08/02 07:49:37;;;;;;;5.65;1.90;;;18.80;95.60;;;;;;5036901;28;20100;-88
2021/08/02 07:52:03;;;;;;;4.38;1.33;;;18.70;95.20;;;;;;5033946;28;20049;-86
2021/08/02 07:54:29;;;;;;;3.38;1.50;;;18.70;95.00;;;;;;5031935;28;20052;-89
2021/08/02 07:56:54;;;;;;;6.32;1.50;;;18.70;95.20;;;;;;5028316;28;20052;-86
2021/08/02 07:59:20;;;;;;;5.03;1.30;;;18.70;95.40;;;;;;5017971;28;20033;-88
2021/08/02 08:01:45;;;;;;;5.47;1.48;;;18.80;94.70;;;;;;5033345;28;20046;-88
2021/08/02 08:04:11;;;;;;;5.93;1.15;;;18.90;95.20;;;;;;5016683;28;20414;-87
2021/08/02 08:06:36;;;;;;;3.67;2.00;;;18.90;94.30;;;;;;5018112;28;20286;-87
2021/08/02 08:09:02;;;;;;;3.15;1.58;;;19.00;94.30;;;;;;5033215;28;20048;-87
2021/08/02 08:11:27;;;;;;;2.55;1.55;;;19.10;94.40;;;;;;5017528;28;20045;-87
2021/08/02 08:13:53;;;;;;;2.85;1.58;;;19.20;94.10;;;;;;5016778;28;20073;-88
2021/08/02 08:16:18;;;;;;;2.25;1.70;;;19.20;93.80;;;;;;5017746;28;20125;-88
2021/08/02 08:18:44;;;;;;;4.45;1.83;;;19.30;93.40;;;;;;5033471;28;20398;-87
2021/08/02 08:21:09;;;;;;;2.35;1.50;;;19.50;93.20;;;;;;5032798;28;20037;-88
2021/08/02 08:23:35;;;;;;;4.78;1.85;;;19.60;94.40;;;;;;5033615;28;20052;-87
2021/08/02 08:26:01;;;;;;;3.35;1.25;;;19.90;93.70;;;;;;5033800;28;20045;-88
2021/08/02 08:28:28;;;;;;;1.85;1.27;;;20.10;93.50;;;;;;5033369;28;20042;-88
2021/08/02 08:30:53;;;;;;;3.03;1.65;;;20.30;93.00;;;;;;5038396;28;20041;-88
2021/08/02 08:33:19;;;;;;;1.25;1.02;;;20.40;92.20;;;;;;5034330;28;20034;-88
2021/08/02 08:35:45;;;;;;;1.77;1.10;;;20.50;91.90;;;;;;5025864;28;20048;-86
2021/08/02 08:38:10;;;;;;;2.03;1.30;;;20.60;92.00;;;;;;5018253;28;20025;-87
2021/08/02 08:40:37;;;;;;;1.98;0.90;;;20.80;91.10;;;;;;5033175;28;20038;-88
2021/08/02 08:43:04;;;;;;;2.80;1.67;;;21.00;90.90;;;;;;5034221;28;20414;-88
2021/08/02 08:45:30;;;;;;;2.08;1.15;;;21.20;91.60;;;;;;5017472;28;20054;-88
2021/08/02 08:47:56;;;;;;;5.65;1.10;;;21.40;90.70;;;;;;5033799;28;20100;-89
2021/08/02 08:50:23;;;;;;;1.02;0.93;;;21.50;90.00;;;;;;5033599;28;20038;-88
2021/08/02 08:52:59;;;;;;;1.80;1.02;;;21.60;88.70;;;;;;5017004;28;20050;-87
2021/08/02 08:55:24;;;;;;;2.25;0.88;;;21.70;90.20;;;;;;5019423;28;20638;-88
2021/08/02 08:57:50;;;;;;;1.85;0.88;;;21.70;88.50;;;;;;5037613;28;20042;-89
2021/08/02 09:00:21;;;;;;;1.02;0.80;;;21.60;85.40;;;;;;5036574;28;20034;-87
2021/08/02 09:02:47;;;;;;;1.10;0.63;;;21.40;85.80;;;;;;5039292;28;20041;-88
2021/08/02 09:05:13;;;;;;;0.80;0.70;;;21.20;86.90;;;;;;5046548;28;20049;-88
2021/08/02 09:07:43;;;;;;;1.38;0.80;;;21.10;85.00;;;;;;5026423;28;20065;-88
2021/08/02 09:10:12;;;;;;;1.17;0.68;;;20.90;84.60;;;;;;5021498;28;20042;-88
2021/08/02 09:12:52;;;;;;;1.13;0.60;;;20.70;82.30;;;;;;5036362;28;20042;-87
2021/08/02 09:15:31;;;;;;;1.20;0.70;;;20.60;82.20;;;;;;5020753;28;20155;-87
2021/08/02 09:17:57;;;;;;;1.70;0.60;;;20.60;82.50;;;;;;5035314;28;20091;-88
2021/08/02 09:20:24;;;;;;;0.73;0.57;;;20.60;85.20;;;;;;5036616;28;20037;-87
2021/08/02 09:22:51;;;;;;;1.33;0.80;;;20.70;83.50;;;;;;5021016;28;20113;-87
2021/08/02 09:25:25;;;;;;;1.08;0.75;;;20.90;84.70;;;;;;5020709;28;20046;-87
2021/08/02 09:27:51;;;;;;;2.70;1.02;;;21.00;82.90;;;;;;5036118;28;20132;-86
2021/08/02 09:30:22;;;;;;;0.68;0.50;;;21.20;80.50;;;;;;5036289;28;20458;-87
2021/08/02 09:32:55;;;;;;;4.20;0.63;;;21.40;79.40;;;;;;5036612;28;20120;-88
2021/08/02 09:35:31;;;;;;;5.05;0.98;;;21.50;77.80;;;;;;5036659;28;20061;-87
2021/08/02 09:38:02;;;;;;;1.67;0.77;;;21.60;79.00;;;;;;5042707;28;20057;-88
2021/08/02 09:40:34;;;;;;;1.38;0.63;;;21.70;79.70;;;;;;5042016;28;20263;-86
2021/08/02 09:43:00;;;;;;;2.72;0.90;;;21.80;79.30;;;;;;5036159;28;20077;-87
2021/08/02 09:45:27;;;;;;;1.17;0.75;;;21.70;79.80;;;;;;5035967;28;20080;-87
2021/08/02 09:47:52;;;;;;;0.90;0.55;;;21.80;79.50;;;;;;5039910;28;20038;-88
2021/08/02 09:50:29;;;;;;;1.75;0.70;;;21.90;79.60;;;;;;5021116;28;20076;-87
2021/08/02 09:52:57;;;;;;;1.00;0.60;;;22.10;78.90;;;;;;5035639;28;20046;-89
2021/08/02 09:55:22;;;;;;;2.13;0.52;;;22.20;79.50;;;;;;5038471;28;20442;-88
2021/08/02 09:57:58;;;;;;;1.88;0.80;;;22.30;74.10;;;;;;5020397;28;20070;-88
2021/08/02 10:00:24;;;;;;;1.83;0.60;;;22.20;74.40;;;;;;5036100;28;20033;-88
2021/08/02 10:02:51;;;;;;;0.73;0.60;;;22.10;75.20;;;;;;5036372;28;20056;-86
2021/08/02 10:05:18;;;;;;;1.00;0.60;;;22.00;73.20;;;;;;5035625;28;20049;-88
2021/08/02 10:07:45;;;;;;;2.92;1.08;;;21.90;76.80;;;;;;5035542;28;20354;-88
2021/08/02 10:10:12;;;;;;;1.80;0.80;;;22.00;78.60;;;;;;5019881;28;20117;-88
2021/08/02 10:12:47;;;;;;;1.98;0.80;;;22.20;77.50;;;;;;5035401;28;20053;-89
2021/08/02 10:15:17;;;;;;;3.10;0.80;;;22.40;75.80;;;;;;5019255;28;20029;-88
2021/08/02 10:17:49;;;;;;;0.85;0.60;;;22.50;74.50;;;;;;5019650;28;20091;-88
2021/08/02 10:20:36;;;;;;;1.42;0.98;;;22.60;74.00;;;;;;5034843;28;20045;-85
2021/08/02 10:23:03;;;;;;;7.88;0.82;;;22.50;73.50;;;;;;5019119;28;20037;-87
2021/08/02 10:25:40;;;;;;;1.30;0.70;;;22.40;74.20;;;;;;5034749;28;20676;-85
2021/08/02 10:28:16;;;;;;;4.78;1.00;;;22.40;72.60;;;;;;5018681;28;20141;-88
2021/08/02 10:30:45;;;;;;;1.52;0.70;;;22.40;74.50;;;;;;5020600;28;20030;-88
2021/08/02 10:33:11;;;;;;;2.47;0.60;;;22.40;72.30;;;;;;5034688;28;20046;-87
2021/08/02 10:35:39;;;;;;;2.05;0.90;;;22.40;74.30;;;;;;5019598;28;20038;-87
2021/08/02 10:38:11;;;;;;;2.28;1.27;;;22.50;74.00;;;;;;5044906;28;20261;-88
2021/08/02 10:40:50;;;;;;;1.85;0.85;;;22.60;75.20;;;;;;5023794;28;20034;-89
2021/08/02 10:43:26;;;;;;;1.40;0.80;;;22.60;73.30;;;;;;5041114;28;20038;-87
2021/08/02 10:45:52;;;;;;;3.90;0.65;;;22.50;73.40;;;;;;5018897;28;20042;-87
2021/08/02 10:48:22;;;;;;;1.15;0.70;;;22.40;74.60;;;;;;5034381;28;20129;-87
2021/08/02 10:50:48;;;;;;;1.40;0.82;;;22.30;74.20;;;;;;5033679;28;20077;-87
2021/08/02 10:53:17;;;;;;;4.93;0.75;;;22.30;75.10;;;;;;5017566;28;20045;-88
2021/08/02 10:55:52;;;;;;;0.88;0.65;;;22.50;73.10;;;;;;5018894;28;20037;-87
2021/08/02 10:58:50;;;;;;;1.88;0.60;;;22.70;72.20;;;;;;5034971;28;20042;-87
2021/08/02 11:01:16;;;;;;;1.10;0.50;;;22.90;71.70;;;;;;5008249;28;20398;-88
2021/08/02 11:03:42;;;;;;;0.95;0.50;;;23.00;69.10;;;;;;5034132;28;20045;-88
2021/08/02 11:06:13;;;;;;;0.80;0.70;;;23.10;68.00;;;;;;5033391;28;20297;-87
2021/08/02 11:08:56;;;;;;;3.85;0.90;;;23.20;70.50;;;;;;5033272;28;20041;-86
2021/08/02 11:11:25;;;;;;;1.67;0.70;;;23.30;71.10;;;;;;5033659;28;20291;-87
2021/08/02 11:14:03;;;;;;;1.10;0.47;;;23.50;71.00;;;;;;5025380;28;20270;-85
2021/08/02 11:16:28;;;;;;;1.20;0.60;;;23.50;67.70;;;;;;5020621;28;20183;-87
2021/08/02 11:18:54;;;;;;;0.95;0.43;;;23.60;71.70;;;;;;5032776;28;20120;-87
2021/08/02 11:21:25;;;;;;;2.80;0.70;;;23.60;69.30;;;;;;5017564;28;20048;-87
2021/08/02 11:23:54;;;;;;;3.17;0.90;;;23.70;70.40;;;;;;5017352;28;20125;-88
2021/08/02 11:26:21;;;;;;;1.35;0.70;;;23.60;67.80;;;;;;5033539;28;20374;-87
2021/08/02 11:28:49;;;;;;;20.13;1.15;;;23.30;68.20;;;;;;5033216;28;20138;-87
2021/08/02 11:31:15;;;;;;;1.13;0.68;;;23.10;68.30;;;;;;5017646;28;20038;-88
2021/08/02 11:33:42;;;;;;;0.98;0.60;;;22.90;69.20;;;;;;5017820;28;20298;-87
2021/08/02 11:36:19;;;;;;;0.85;0.55;;;22.70;69.20;;;;;;5033470;28;20030;-88
2021/08/02 11:38:46;;;;;;;1.65;0.85;;;22.60;68.30;;;;;;5033176;28;20030;-87
2021/08/02 11:41:26;;;;;;;0.77;0.50;;;22.60;69.20;;;;;;5032683;28;20271;-86
2021/08/02 11:43:58;;;;;;;0.43;0.40;;;22.70;66.80;;;;;;5017845;28;20092;-89
2021/08/02 11:46:24;;;;;;;;;;;22.80;69.90;;;;;;5033978;28;20076;-89
2021/08/02 11:48:50;;;;;;;0.90;0.47;;;23.00;69.70;;;;;;5027710;28;19917;-86
2021/08/02 11:51:19;;;;;;;1.23;0.55;;;23.20;66.80;;;;;;5035760;28;20218;-89
2021/08/02 11:53:45;;;;;;;0.63;0.40;;;23.40;69.40;;;;;;5033880;28;20298;-86
2021/08/02 11:56:11;;;;;;;3.40;0.65;;;23.50;68.60;;;;;;5032629;28;20066;-87
2021/08/02 11:58:44;;;;;;;2.83;0.70;;;23.70;66.00;;;;;;5017788;28;20033;-87
2021/08/02 12:01:11;;;;;;;1.42;0.80;;;23.80;68.80;;;;;;5017151;28;20030;-87
2021/08/02 12:03:37;;;;;;;1.45;0.68;;;23.80;66.90;;;;;;5034208;28;20042;-88
2021/08/02 12:06:05;;;;;;;1.52;0.60;;;24.00;68.00;;;;;;5018181;28;20080;-87
2021/08/02 12:08:30;;;;;;;0.63;0.50;;;24.00;66.90;;;;;;5017084;28;20080;-88
2021/08/02 12:10:59;;;;;;;2.95;0.63;;;24.00;65.20;;;;;;5033224;28;20077;-87
2021/08/02 12:13:24;;;;;;;0.90;0.50;;;23.90;65.50;;;;;;5019596;28;20052;-87
2021/08/02 12:15:57;;;;;;;2.25;0.60;;;23.80;67.90;;;;;;5034730;28;20033;-86
2021/08/02 12:18:30;;;;;;;0.90;0.60;;;24.00;67.40;;;;;;5019272;28;20033;-88
2021/08/02 12:21:14;;;;;;;1.70;0.70;;;24.30;65.30;;;;;;5021459;28;20048;-86
2021/08/02 12:23:40;;;;;;;0.68;0.43;;;24.50;66.40;;;;;;5016355;28;20120;-88
2021/08/02 12:26:20;;;;;;;1.30;0.57;;;24.50;64.90;;;;;;5032574;28;20267;-87
2021/08/02 12:28:47;;;;;;;2.17;0.50;;;24.60;63.80;;;;;;5017034;28;20286;-88
2021/08/02 12:31:21;;;;;;;2.38;0.80;;;24.60;63.60;;;;;;5036234;28;20041;-88
2021/08/02 12:33:49;;;;;;;1.17;0.60;;;24.60;64.40;;;;;;5020785;28;20041;-86
2021/08/02 12:36:16;;;;;;;0.90;0.63;;;24.40;67.00;;;;;;5020365;28;20749;-90
2021/08/02 12:38:46;;;;;;;2.80;0.88;;;24.40;65.00;;;;;;5036711;28;20030;-89
2021/08/02 12:41:12;;;;;;;1.15;0.60;;;24.50;66.70;;;;;;5020486;28;20176;-90
2021/08/02 12:43:38;;;;;;;2.42;1.30;;;24.60;66.30;;;;;;5036994;28;20132;-89
2021/08/02 12:46:03;;;;;;;1.33;0.60;;;24.50;63.40;;;;;;5036891;28;20052;-88
2021/08/02 12:48:29;;;;;;;0.95;0.52;;;24.50;63.70;;;;;;5021037;28;20037;-89
2021/08/02 12:50:55;;;;;;;1.08;0.68;;;24.40;63.40;;;;;;5036785;28;20428;-89
2021/08/02 12:53:20;;;;;;;1.67;0.60;;;24.30;64.80;;;;;;5020969;28;20311;-88